createdAt,value
2023-12-03T00:01:20.737Z,-0.10
2023-12-03T00:03:48.756Z,-0.10
2023-12-03T00:06:16.325Z,-0.10
2023-12-03T00:08:50.478Z,0.00
2023-12-03T00:11:18.497Z,0.00
2023-12-03T00:13:45.658Z,0.00
2023-12-03T00:16:12.955Z,0.00
2023-12-03T00:18:40.356Z,-0.10
2023-12-03T00:21:08.162Z,-0.10
2023-12-03T00:23:35.438Z,-0.10
2023-12-03T00:26:02.570Z,-0.20
2023-12-03T00:28:29.711Z,-0.40
2023-12-03T00:30:56.884Z,-0.50
2023-12-03T00:33:24.242Z,-0.50
2023-12-03T00:35:51.393Z,-0.60
2023-12-03T00:38:18.536Z,-0.80
2023-12-03T00:40:45.869Z,-0.90
2023-12-03T00:43:13.065Z,-1.00
2023-12-03T00:45:40.319Z,-1.10
2023-12-03T00:48:07.939Z,-1.20
2023-12-03T00:50:35.202Z,-1.20
2023-12-03T00:53:02.389Z,-1.30
2023-12-03T00:55:29.518Z,-1.30
2023-12-03T00:57:56.727Z,-1.30
2023-12-03T01:00:24.010Z,-1.30
2023-12-03T01:02:51.172Z,-1.30
2023-12-03T01:05:18.638Z,-1.20
2023-12-03T01:07:45.881Z,-1.20
2023-12-03T01:10:13.052Z,-1.30
2023-12-03T01:12:40.358Z,-1.30
2023-12-03T01:15:08.146Z,-1.20
2023-12-03T01:17:35.389Z,-1.20
2023-12-03T01:20:02.668Z,-1.20
2023-12-03T01:22:29.805Z,-1.20
2023-12-03T01:24:57.022Z,-1.20
2023-12-03T01:27:24.291Z,-1.20
2023-12-03T01:29:51.465Z,-1.20
2023-12-03T01:32:18.729Z,-1.20
2023-12-03T01:34:45.941Z,-1.20
2023-12-03T01:37:13.140Z,-1.20
2023-12-03T01:39:40.381Z,-1.20
2023-12-03T01:42:07.617Z,-1.30
2023-12-03T01:44:34.924Z,-1.30
2023-12-03T01:47:04.846Z,-1.40
2023-12-03T01:49:32.745Z,-1.40
2023-12-03T01:52:00.534Z,-1.50
2023-12-03T01:54:38.651Z,-1.40
2023-12-03T01:57:05.856Z,-1.50
2023-12-03T01:59:33.991Z,-1.40
2023-12-03T02:02:02.435Z,-1.50
2023-12-03T02:04:29.727Z,-1.50
2023-12-03T02:06:57.238Z,-1.50
2023-12-03T02:09:25.383Z,-1.60
2023-12-03T02:11:52.845Z,-1.50
2023-12-03T02:14:20.121Z,-1.50
2023-12-03T02:16:48.754Z,-1.50
2023-12-03T02:19:16.723Z,-1.40
2023-12-03T02:21:44.388Z,-1.30
2023-12-03T02:24:11.577Z,-1.20
2023-12-03T02:26:38.698Z,-1.10
2023-12-03T02:29:05.882Z,-1.00
2023-12-03T02:31:33.083Z,-0.90
2023-12-03T02:34:07.781Z,-0.80
2023-12-03T02:36:35.453Z,-0.70
2023-12-03T02:39:02.831Z,-0.60
2023-12-03T02:41:30.650Z,-0.60
2023-12-03T02:43:57.859Z,-0.50
2023-12-03T02:46:25.284Z,-0.40
2023-12-03T02:48:52.514Z,-0.30
2023-12-03T02:51:19.907Z,-0.30
2023-12-03T02:53:47.367Z,-0.20
2023-12-03T02:56:14.561Z,-0.20
2023-12-03T02:58:42.142Z,-0.20
2023-12-03T03:01:09.610Z,-0.10
2023-12-03T03:03:37.008Z,-0.10
2023-12-03T03:06:04.674Z,0.00
2023-12-03T03:08:31.905Z,0.00
2023-12-03T03:10:59.054Z,0.00
2023-12-03T03:13:26.184Z,0.00
2023-12-03T03:15:54.182Z,0.10
2023-12-03T03:18:22.121Z,0.10
2023-12-03T03:20:49.422Z,0.10
2023-12-03T03:23:16.551Z,0.20
2023-12-03T03:25:43.688Z,0.10
2023-12-03T03:28:10.825Z,0.10
2023-12-03T03:30:38.051Z,0.10
2023-12-03T03:33:05.504Z,0.10
2023-12-03T03:35:33.796Z,0.10
2023-12-03T03:38:01.545Z,0.10
2023-12-03T03:40:28.689Z,0.00
2023-12-03T03:42:55.861Z,0.10
2023-12-03T03:45:23.020Z,0.10
2023-12-03T03:47:50.238Z,0.10
2023-12-03T03:50:17.388Z,0.10
2023-12-03T03:52:44.516Z,0.10
2023-12-03T03:55:11.668Z,0.10
2023-12-03T03:57:39.003Z,0.10
2023-12-03T04:00:07.086Z,0.00
2023-12-03T04:02:39.317Z,-0.10
2023-12-03T04:05:07.941Z,-0.20
2023-12-03T04:07:35.317Z,-0.30
2023-12-03T04:10:02.517Z,-0.50
2023-12-03T04:12:29.936Z,-0.60
2023-12-03T04:14:57.091Z,-0.70
2023-12-03T04:17:24.322Z,-0.80
2023-12-03T04:19:51.471Z,-0.90
2023-12-03T04:22:18.656Z,-1.00
2023-12-03T04:24:47.250Z,-1.00
2023-12-03T04:27:14.509Z,-1.00
2023-12-03T04:29:41.665Z,-1.10
2023-12-03T04:32:09.224Z,-1.10
2023-12-03T04:34:36.490Z,-1.20
2023-12-03T04:37:04.908Z,-1.30
2023-12-03T04:39:32.161Z,-1.30
2023-12-03T04:41:59.310Z,-1.30
2023-12-03T04:44:26.444Z,-1.30
2023-12-03T04:46:53.578Z,-1.30
2023-12-03T04:49:20.827Z,-1.30
2023-12-03T04:51:48.048Z,-1.30
2023-12-03T04:54:15.253Z,-1.20
2023-12-03T04:56:42.418Z,-1.10
2023-12-03T04:59:09.557Z,-1.00
2023-12-03T05:01:36.726Z,-0.90
2023-12-03T05:04:03.980Z,-0.80
2023-12-03T05:06:31.304Z,-0.80
2023-12-03T05:08:58.513Z,-0.80
2023-12-03T05:11:25.655Z,-0.70
2023-12-03T05:13:52.876Z,-0.70
2023-12-03T05:16:20.525Z,-0.70
2023-12-03T05:18:47.887Z,-0.80
2023-12-03T05:21:15.313Z,-0.90
2023-12-03T05:23:42.477Z,-1.00
2023-12-03T05:26:09.627Z,-1.10
2023-12-03T05:28:36.804Z,-1.20
2023-12-03T05:31:05.738Z,-1.30
2023-12-03T05:33:33.042Z,-1.30
2023-12-03T05:36:00.264Z,-1.30
2023-12-03T05:38:27.394Z,-1.30
2023-12-03T05:40:54.559Z,-1.40
2023-12-03T05:43:21.903Z,-1.40
2023-12-03T05:45:49.077Z,-1.50
2023-12-03T05:48:16.809Z,-1.50
2023-12-03T05:50:44.122Z,-1.60
2023-12-03T05:53:11.362Z,-1.60
2023-12-03T05:55:38.503Z,-1.60
2023-12-03T05:58:08.472Z,-1.60
2023-12-03T06:00:35.629Z,-1.60
2023-12-03T06:03:02.975Z,-1.50
2023-12-03T06:05:30.170Z,-1.40
2023-12-03T06:07:57.364Z,-1.30
2023-12-03T06:10:24.708Z,-1.20
2023-12-03T06:12:52.216Z,-1.10
2023-12-03T06:15:19.402Z,-1.10
2023-12-03T06:17:46.640Z,-1.00
2023-12-03T06:20:13.799Z,-1.00
2023-12-03T06:22:41.198Z,-1.00
2023-12-03T06:25:09.234Z,-1.00
2023-12-03T06:27:36.531Z,-1.10
2023-12-03T06:30:04.114Z,-1.00
2023-12-03T06:32:31.364Z,-1.00
2023-12-03T06:34:58.612Z,-0.90
2023-12-03T06:37:25.798Z,-0.90
2023-12-03T06:39:53.414Z,-0.80
2023-12-03T06:42:20.669Z,-0.70
2023-12-03T06:44:47.950Z,-0.60
2023-12-03T06:47:15.086Z,-0.50
2023-12-03T06:49:43.212Z,-0.40
2023-12-03T06:52:10.517Z,-0.40
2023-12-03T06:54:37.700Z,-0.40
2023-12-03T06:57:05.054Z,-0.40
2023-12-03T06:59:32.181Z,-0.40
2023-12-03T07:01:59.379Z,-0.40
2023-12-03T07:04:26.644Z,-0.40
2023-12-03T07:06:53.905Z,-0.40
2023-12-03T07:09:37.285Z,-0.50
2023-12-03T07:12:08.492Z,-0.50
2023-12-03T07:14:35.713Z,-0.50
2023-12-03T07:17:02.906Z,-0.50
2023-12-03T07:19:30.100Z,-0.40
2023-12-03T07:21:57.432Z,-0.40
2023-12-03T07:24:24.636Z,-0.30
2023-12-03T07:26:51.862Z,-0.20
2023-12-03T07:29:19.968Z,-0.10
2023-12-03T07:31:47.110Z,-0.10
2023-12-03T07:34:14.435Z,0.00
2023-12-03T07:36:41.684Z,0.00
2023-12-03T07:39:09.526Z,0.10
2023-12-03T07:41:37.325Z,0.10
2023-12-03T07:44:04.628Z,0.20
2023-12-03T07:46:34.013Z,0.20
2023-12-03T07:49:01.298Z,0.30
2023-12-03T07:51:30.391Z,0.30
2023-12-03T07:53:57.563Z,0.30
2023-12-03T07:56:33.894Z,0.30
2023-12-03T07:59:01.023Z,0.30
2023-12-03T08:01:28.152Z,0.30
2023-12-03T08:03:55.417Z,0.30
2023-12-03T08:06:22.652Z,0.40
2023-12-03T08:08:49.861Z,0.40
2023-12-03T08:11:18.152Z,0.40
2023-12-03T08:13:46.054Z,0.40
2023-12-03T08:16:13.322Z,0.40
2023-12-03T08:18:40.865Z,0.30
2023-12-03T08:21:08.382Z,0.30
2023-12-03T08:23:35.614Z,0.30
2023-12-03T08:26:04.640Z,0.30
2023-12-03T08:28:31.889Z,0.30
2023-12-03T08:31:00.236Z,0.40
2023-12-03T08:33:27.570Z,0.40
2023-12-03T08:35:54.937Z,0.50
2023-12-03T08:38:22.092Z,0.50
2023-12-03T08:40:49.217Z,0.50
2023-12-03T08:43:16.844Z,0.60
2023-12-03T08:45:44.149Z,0.60
2023-12-03T08:48:11.344Z,0.60
2023-12-03T08:50:38.498Z,0.50
2023-12-03T08:53:05.639Z,0.60
2023-12-03T08:55:35.461Z,0.60
2023-12-03T08:58:03.334Z,0.60
2023-12-03T09:00:30.527Z,0.70
2023-12-03T09:02:57.744Z,0.80
2023-12-03T09:05:24.969Z,0.80
2023-12-03T09:07:52.196Z,0.80
2023-12-03T09:10:19.740Z,0.90
2023-12-03T09:12:46.934Z,1.00
2023-12-03T09:15:14.219Z,1.10
2023-12-03T09:17:41.392Z,1.30
2023-12-03T09:20:09.704Z,1.90
2023-12-03T09:22:36.855Z,2.60
2023-12-03T09:25:04.373Z,3.20
2023-12-03T09:27:31.544Z,3.50
2023-12-03T09:29:58.836Z,3.40
2023-12-03T09:32:25.976Z,3.50
2023-12-03T09:34:53.125Z,3.50
2023-12-03T09:37:20.275Z,3.40
2023-12-03T09:39:47.482Z,3.40
2023-12-03T09:42:19.602Z,3.50
2023-12-03T09:44:46.722Z,3.60
2023-12-03T09:47:15.617Z,3.70
2023-12-03T09:49:48.214Z,3.90
2023-12-03T09:52:16.281Z,4.20
2023-12-03T09:54:46.455Z,4.50
2023-12-03T09:57:15.259Z,4.80
2023-12-03T09:59:48.260Z,5.20
2023-12-03T10:02:16.173Z,5.50
2023-12-03T10:04:44.969Z,5.60
2023-12-03T10:07:13.130Z,5.60
2023-12-03T10:09:41.450Z,5.60
2023-12-03T10:12:14.077Z,5.50
2023-12-03T10:14:43.175Z,5.40
2023-12-03T10:17:10.323Z,5.30
2023-12-03T10:19:37.596Z,5.20
2023-12-03T10:22:05.063Z,5.00
2023-12-03T10:24:47.744Z,4.90
2023-12-03T10:27:15.238Z,4.80
2023-12-03T10:29:42.526Z,4.60
2023-12-03T10:32:12.387Z,4.40
2023-12-03T10:34:44.398Z,4.30
2023-12-03T10:37:14.666Z,4.10
2023-12-03T10:39:41.822Z,4.00
2023-12-03T10:42:09.482Z,4.20
2023-12-03T10:44:39.402Z,4.40
2023-12-03T10:47:06.652Z,4.80
2023-12-03T10:49:34.579Z,5.00
2023-12-03T10:52:03.324Z,5.10
2023-12-03T10:54:30.856Z,5.10
2023-12-03T10:56:59.567Z,4.90
2023-12-03T10:59:30.677Z,4.90
2023-12-03T11:02:02.990Z,5.20
2023-12-03T11:04:56.535Z,5.50
2023-12-03T11:07:24.324Z,5.60
2023-12-03T11:09:53.026Z,5.60
2023-12-03T11:12:21.526Z,5.90
2023-12-03T11:14:49.386Z,6.30
2023-12-03T11:17:33.549Z,6.60
2023-12-03T11:20:17.079Z,6.60
2023-12-03T11:23:09.462Z,6.60
2023-12-03T11:25:45.389Z,6.50
2023-12-03T11:28:12.625Z,6.30
2023-12-03T11:30:41.824Z,6.50
2023-12-03T11:33:20.415Z,6.70
2023-12-03T11:35:48.147Z,6.90
2023-12-03T11:38:21.302Z,7.20
2023-12-03T11:40:49.602Z,7.50
2023-12-03T11:43:31.415Z,7.80
2023-12-03T11:45:59.136Z,8.10
2023-12-03T11:48:31.376Z,8.30
2023-12-03T11:50:59.046Z,8.70
2023-12-03T11:54:06.592Z,9.20
2023-12-03T11:56:36.196Z,10.30
2023-12-03T11:59:03.508Z,11.30
2023-12-03T12:01:30.676Z,12.10
2023-12-03T12:03:57.904Z,12.60
2023-12-03T12:06:28.601Z,12.80
2023-12-03T12:08:59.460Z,12.70
2023-12-03T12:11:26.874Z,12.30
2023-12-03T12:13:54.175Z,11.90
2023-12-03T12:16:24.606Z,11.50
2023-12-03T12:18:52.170Z,11.10
2023-12-03T12:21:19.422Z,10.70
2023-12-03T12:23:47.517Z,10.50
2023-12-03T12:26:15.012Z,10.50
2023-12-03T12:28:42.888Z,10.60
2023-12-03T12:31:12.885Z,10.80
2023-12-03T12:33:40.288Z,10.90
2023-12-03T12:36:10.104Z,11.00
2023-12-03T12:38:43.847Z,10.90
2023-12-03T12:41:13.607Z,10.60
2023-12-03T12:44:03.276Z,10.50
2023-12-03T12:46:30.486Z,10.30
2023-12-03T12:49:23.945Z,9.90
2023-12-03T12:51:51.638Z,9.60
2023-12-03T12:54:18.814Z,9.30
2023-12-03T12:56:47.357Z,8.90
2023-12-03T12:59:16.849Z,8.50
2023-12-03T13:01:44.387Z,8.10
2023-12-03T13:04:11.714Z,7.70
2023-12-03T13:06:39.155Z,7.20
2023-12-03T13:09:06.432Z,6.90
2023-12-03T13:11:33.646Z,6.60
2023-12-03T13:14:00.836Z,6.30
2023-12-03T13:16:28.026Z,6.00
2023-12-03T13:18:55.389Z,5.80
2023-12-03T13:21:22.654Z,5.60
2023-12-03T13:23:49.804Z,5.30
2023-12-03T13:26:17.480Z,5.10
2023-12-03T13:28:45.655Z,4.80
2023-12-03T13:31:12.981Z,4.60
2023-12-03T13:33:40.318Z,4.40
2023-12-03T13:36:07.840Z,4.20
2023-12-03T13:38:35.379Z,4.00
2023-12-03T13:41:02.979Z,3.90
2023-12-03T13:43:30.097Z,3.70
2023-12-03T13:45:57.363Z,3.70
2023-12-03T13:48:24.721Z,3.60
2023-12-03T13:50:51.912Z,3.40
2023-12-03T13:53:19.158Z,3.40
2023-12-03T13:55:46.472Z,3.30
2023-12-03T13:58:13.600Z,3.30
2023-12-03T14:00:40.788Z,3.20
2023-12-03T14:03:07.969Z,3.20
2023-12-03T14:05:35.148Z,3.10
2023-12-03T14:08:02.697Z,3.10
2023-12-03T14:10:30.819Z,3.00
2023-12-03T14:12:58.134Z,2.90
2023-12-03T14:15:25.335Z,2.90
2023-12-03T14:17:52.787Z,2.80
2023-12-03T14:20:20.075Z,2.80
2023-12-03T14:22:47.377Z,2.70
2023-12-03T14:25:14.624Z,2.70
2023-12-03T14:27:41.952Z,2.70
2023-12-03T14:30:11.081Z,2.70
2023-12-03T14:32:38.496Z,2.70
2023-12-03T14:35:06.133Z,2.60
2023-12-03T14:37:33.799Z,2.60
2023-12-03T14:40:01.063Z,2.50
2023-12-03T14:42:28.421Z,2.50
2023-12-03T14:44:55.784Z,2.40
2023-12-03T14:47:23.152Z,2.40
2023-12-03T14:49:50.395Z,2.30
2023-12-03T14:52:18.580Z,2.30
2023-12-03T14:54:45.916Z,2.30
2023-12-03T14:57:13.143Z,2.20
2023-12-03T14:59:40.367Z,2.20
2023-12-03T15:02:07.668Z,2.10
2023-12-03T15:04:34.852Z,2.00
2023-12-03T15:07:02.118Z,2.00
2023-12-03T15:09:30.573Z,1.90
2023-12-03T15:11:57.724Z,1.90
2023-12-03T15:14:24.935Z,1.90
2023-12-03T15:16:52.076Z,1.80
2023-12-03T15:19:19.413Z,1.80
2023-12-03T15:21:46.661Z,1.80
2023-12-03T15:24:15.895Z,1.70
2023-12-03T15:26:43.123Z,1.70
2023-12-03T15:29:10.497Z,1.70
2023-12-03T15:31:37.628Z,1.70
2023-12-03T15:34:05.018Z,1.70
2023-12-03T15:36:32.464Z,1.60
2023-12-03T15:38:59.634Z,1.40
2023-12-03T15:41:28.164Z,1.30
2023-12-03T15:43:55.313Z,1.20
2023-12-03T15:46:22.541Z,1.00
2023-12-03T15:48:54.353Z,0.90
2023-12-03T15:51:28.972Z,0.90
2023-12-03T15:53:57.089Z,0.80
2023-12-03T15:56:24.228Z,0.70
2023-12-03T15:58:51.841Z,0.70
2023-12-03T16:01:19.044Z,0.60
2023-12-03T16:03:46.486Z,0.60
2023-12-03T16:06:14.154Z,0.60
2023-12-03T16:08:41.360Z,0.60
2023-12-03T16:11:09.109Z,0.60
2023-12-03T16:13:36.272Z,0.60
2023-12-03T16:16:05.168Z,0.60
2023-12-03T16:18:32.462Z,0.60
2023-12-03T16:20:59.724Z,0.60
2023-12-03T16:23:26.932Z,0.60
2023-12-03T16:25:54.182Z,0.60
2023-12-03T16:28:24.056Z,0.70
2023-12-03T16:30:51.269Z,0.60
2023-12-03T16:33:18.456Z,0.60
2023-12-03T16:35:45.836Z,0.70
2023-12-03T16:38:13.443Z,0.60
2023-12-03T16:40:40.614Z,0.60
2023-12-03T16:43:07.814Z,0.60
2023-12-03T16:45:35.132Z,0.60
2023-12-03T16:48:03.458Z,0.50
2023-12-03T16:50:30.715Z,0.60
2023-12-03T16:52:59.763Z,0.50
2023-12-03T16:55:27.055Z,0.50
2023-12-03T16:57:54.423Z,0.50
2023-12-03T17:00:22.572Z,0.50
2023-12-03T17:02:49.952Z,0.50
2023-12-03T17:05:17.217Z,0.50
2023-12-03T17:07:44.528Z,0.50
2023-12-03T17:10:11.793Z,0.50
2023-12-03T17:12:44.821Z,0.50
2023-12-03T17:15:18.237Z,0.50
2023-12-03T17:17:45.501Z,0.50
2023-12-03T17:20:12.865Z,0.50
2023-12-03T17:22:40.035Z,0.50
2023-12-03T17:25:07.462Z,0.50
2023-12-03T17:27:34.712Z,0.40
2023-12-03T17:30:02.034Z,0.40
2023-12-03T17:32:29.354Z,0.40
2023-12-03T17:34:57.087Z,0.40
2023-12-03T17:37:24.490Z,0.30
2023-12-03T17:39:51.872Z,0.30
2023-12-03T17:42:19.946Z,0.30
2023-12-03T17:44:47.078Z,0.30
2023-12-03T17:47:14.298Z,0.30
2023-12-03T17:49:41.484Z,0.30
2023-12-03T17:52:08.722Z,0.20
2023-12-03T17:54:36.539Z,0.20
2023-12-03T17:57:04.036Z,0.20
2023-12-03T17:59:31.753Z,0.20
2023-12-03T18:01:59.343Z,0.20
2023-12-03T18:04:26.808Z,0.20
2023-12-03T18:06:54.327Z,0.10
2023-12-03T18:09:21.657Z,0.10
2023-12-03T18:11:48.898Z,0.10
2023-12-03T18:14:16.991Z,0.00
2023-12-03T18:16:44.468Z,0.00
2023-12-03T18:19:11.808Z,0.00
2023-12-03T18:21:40.592Z,0.00
2023-12-03T18:24:09.026Z,0.00
2023-12-03T18:26:39.948Z,0.00
2023-12-03T18:29:07.963Z,0.00
2023-12-03T18:31:35.096Z,-0.10
2023-12-03T18:34:02.400Z,-0.10
2023-12-03T18:36:30.082Z,-0.10
2023-12-03T18:38:58.148Z,-0.10
2023-12-03T18:41:25.636Z,-0.10
2023-12-03T18:43:52.907Z,0.00
2023-12-03T18:46:21.194Z,0.00
2023-12-03T18:48:48.465Z,0.00
2023-12-03T18:51:15.832Z,0.00
2023-12-03T18:53:43.038Z,0.00
2023-12-03T18:56:11.957Z,0.00
2023-12-03T18:58:39.406Z,0.00
2023-12-03T19:01:09.115Z,0.00
2023-12-03T19:03:36.594Z,0.00
2023-12-03T19:06:04.098Z,0.00
2023-12-03T19:08:34.247Z,0.00
2023-12-03T19:11:06.266Z,0.00
2023-12-03T19:13:33.660Z,0.00
2023-12-03T19:16:01.275Z,0.00
2023-12-03T19:18:28.906Z,0.00
2023-12-03T19:20:56.638Z,0.00
2023-12-03T19:23:24.430Z,0.00
2023-12-03T19:25:52.126Z,0.00
2023-12-03T19:28:19.323Z,0.00
2023-12-03T19:30:46.710Z,0.00
2023-12-03T19:33:15.385Z,0.00
2023-12-03T19:35:43.036Z,0.10
2023-12-03T19:38:11.454Z,0.10
2023-12-03T19:40:38.630Z,0.10
2023-12-03T19:43:05.962Z,0.00
2023-12-03T19:45:33.240Z,0.10
2023-12-03T19:48:00.561Z,0.10
2023-12-03T19:50:28.051Z,0.10
2023-12-03T19:52:57.151Z,0.10
2023-12-03T19:55:24.372Z,0.10
2023-12-03T19:57:52.252Z,0.10
2023-12-03T20:00:19.715Z,0.10
2023-12-03T20:02:52.717Z,0.10
2023-12-03T20:05:20.456Z,0.10
2023-12-03T20:07:47.941Z,0.10
2023-12-03T20:10:15.921Z,0.10
2023-12-03T20:12:43.240Z,0.20
2023-12-03T20:15:17.722Z,0.10
2023-12-03T20:17:52.407Z,0.20
2023-12-03T20:20:19.845Z,0.20
2023-12-03T20:22:47.299Z,0.20
2023-12-03T20:25:15.021Z,0.20
2023-12-03T20:27:42.364Z,0.20
2023-12-03T20:30:10.189Z,0.20
2023-12-03T20:32:37.762Z,0.10
2023-12-03T20:35:06.460Z,0.20
2023-12-03T20:37:33.813Z,0.20
2023-12-03T20:40:01.215Z,0.20
2023-12-03T20:42:30.989Z,0.20
2023-12-03T20:44:58.440Z,0.20
2023-12-03T20:47:25.781Z,0.20
2023-12-03T20:49:53.100Z,0.20
2023-12-03T20:52:22.153Z,0.20
2023-12-03T20:54:49.582Z,0.20
2023-12-03T20:57:17.018Z,0.20
2023-12-03T20:59:44.398Z,0.20
2023-12-03T21:02:11.833Z,0.20
2023-12-03T21:04:39.578Z,0.20
2023-12-03T21:07:07.144Z,0.20
2023-12-03T21:09:34.510Z,0.20
2023-12-03T21:12:01.966Z,0.30
2023-12-03T21:14:29.437Z,0.30
2023-12-03T21:16:56.861Z,0.30
2023-12-03T21:19:24.618Z,0.30
2023-12-03T21:21:52.285Z,0.30
2023-12-03T21:24:19.708Z,0.30
2023-12-03T21:26:46.934Z,0.30
2023-12-03T21:29:14.083Z,0.30
2023-12-03T21:31:41.249Z,0.30
2023-12-03T21:34:08.784Z,0.30
2023-12-03T21:36:39.079Z,0.40
2023-12-03T21:39:08.666Z,0.30
2023-12-03T21:41:36.124Z,0.40
2023-12-03T21:44:04.117Z,0.30
2023-12-03T21:46:31.410Z,0.20
2023-12-03T21:48:59.441Z,0.20
2023-12-03T21:51:26.769Z,0.10
2023-12-03T21:53:53.928Z,0.10
2023-12-03T21:56:21.288Z,0.00
2023-12-03T21:58:48.575Z,0.00
2023-12-03T22:01:15.739Z,0.00
2023-12-03T22:03:43.560Z,0.00
2023-12-03T22:06:12.081Z,0.00
2023-12-03T22:08:39.265Z,0.00
2023-12-03T22:11:06.716Z,0.00
2023-12-03T22:13:33.939Z,0.00
2023-12-03T22:16:01.122Z,0.00
2023-12-03T22:18:28.657Z,-0.10
2023-12-03T22:20:55.966Z,-0.10
2023-12-03T22:23:26.820Z,-0.10
2023-12-03T22:25:54.854Z,-0.10
2023-12-03T22:28:22.082Z,-0.20
2023-12-03T22:30:49.351Z,-0.20
2023-12-03T22:33:16.757Z,-0.20
2023-12-03T22:35:44.000Z,-0.10
2023-12-03T22:38:11.242Z,-0.10
2023-12-03T22:40:38.723Z,-0.20
2023-12-03T22:43:05.896Z,-0.20
2023-12-03T22:45:33.314Z,-0.20
2023-12-03T22:48:00.757Z,-0.20
2023-12-03T22:50:30.589Z,-0.10
2023-12-03T22:52:58.940Z,-0.20
2023-12-03T22:55:26.201Z,-0.10
2023-12-03T22:57:53.423Z,-0.10
2023-12-03T23:00:22.040Z,0.00
2023-12-03T23:02:49.895Z,0.00
2023-12-03T23:07:47.496Z,0.00
2023-12-03T23:10:17.342Z,0.00
2023-12-03T23:12:44.510Z,0.10
2023-12-03T23:15:12.975Z,0.10
2023-12-03T23:17:41.518Z,0.10
2023-12-03T23:20:09.338Z,0.20
2023-12-03T23:22:36.516Z,0.20
2023-12-03T23:25:04.173Z,0.20
2023-12-03T23:27:31.344Z,0.20
2023-12-03T23:29:58.541Z,0.20
2023-12-03T23:32:25.721Z,0.10
2023-12-03T23:34:52.982Z,0.10
2023-12-03T23:37:20.145Z,0.10
2023-12-03T23:39:47.355Z,0.10
2023-12-03T23:42:14.511Z,0.10
2023-12-03T23:44:41.625Z,0.10
2023-12-03T23:47:11.021Z,0.10
2023-12-03T23:49:38.234Z,0.00
2023-12-03T23:52:05.942Z,0.00
2023-12-03T23:54:33.229Z,0.00
2023-12-03T23:57:00.764Z,0.00
2023-12-03T23:59:28.639Z,0.10
